sensor_id;sensor_type;location;lat;lon;timestamp;temperature;humidity
43671;DHT22;29267;50.906;7.248;2023-12-20T00:01:41;7.10;99.90
43671;DHT22;29267;50.906;7.248;2023-12-20T00:04:07;7.10;99.90
43671;DHT22;29267;50.906;7.248;2023-12-20T00:06:32;7.10;99.90
43671;DHT22;29267;50.906;7.248;2023-12-20T00:08:58;7.10;99.90
43671;DHT22;29267;50.906;7.248;2023-12-20T00:11:24;7.10;99.90
43671;DHT22;29267;50.906;7.248;2023-12-20T00:13:50;7.10;99.90
43671;DHT22;29267;50.906;7.248;2023-12-20T00:16:15;7.10;99.90
43671;DHT22;29267;50.906;7.248;2023-12-20T00:18:41;7.10;99.90
43671;DHT22;29267;50.906;7.248;2023-12-20T00:21:07;7.10;99.90
43671;DHT22;29267;50.906;7.248;2023-12-20T00:23:32;7.10;99.90
43671;DHT22;29267;50.906;7.248;2023-12-20T00:25:58;7.10;99.90
43671;DHT22;29267;50.906;7.248;2023-12-20T00:28:24;7.10;99.90
43671;DHT22;29267;50.906;7.248;2023-12-20T00:30:49;7.10;99.90
43671;DHT22;29267;50.906;7.248;2023-12-20T00:33:15;7.10;99.90
43671;DHT22;29267;50.906;7.248;2023-12-20T00:35:41;7.10;99.90
43671;DHT22;29267;50.906;7.248;2023-12-20T00:38:06;7.10;99.90
43671;DHT22;29267;50.906;7.248;2023-12-20T00:40:34;7.10;99.90
43671;DHT22;29267;50.906;7.248;2023-12-20T00:42:59;7.10;99.90
43671;DHT22;29267;50.906;7.248;2023-12-20T00:45:25;7.10;99.90
43671;DHT22;29267;50.906;7.248;2023-12-20T00:47:50;7.10;99.90
43671;DHT22;29267;50.906;7.248;2023-12-20T00:50:16;7.10;99.90
43671;DHT22;29267;50.906;7.248;2023-12-20T00:52:42;7.10;99.90
43671;DHT22;29267;50.906;7.248;2023-12-20T00:55:07;7.10;99.90
43671;DHT22;29267;50.906;7.248;2023-12-20T00:57:33;7.10;99.90
43671;DHT22;29267;50.906;7.248;2023-12-20T00:59:59;7.10;99.90
43671;DHT22;29267;50.906;7.248;2023-12-20T01:02:25;7.10;99.90
43671;DHT22;29267;50.906;7.248;2023-12-20T01:04:50;7.10;99.90
43671;DHT22;29267;50.906;7.248;2023-12-20T01:07:16;7.10;99.90
43671;DHT22;29267;50.906;7.248;2023-12-20T01:09:42;7.00;99.90
43671;DHT22;29267;50.906;7.248;2023-12-20T01:12:07;7.00;99.90
43671;DHT22;29267;50.906;7.248;2023-12-20T01:14:33;7.00;99.90
43671;DHT22;29267;50.906;7.248;2023-12-20T01:16:59;7.00;99.90
43671;DHT22;29267;50.906;7.248;2023-12-20T01:19:25;6.90;99.90
43671;DHT22;29267;50.906;7.248;2023-12-20T01:21:50;6.90;99.90
43671;DHT22;29267;50.906;7.248;2023-12-20T01:24:16;6.90;99.90
43671;DHT22;29267;50.906;7.248;2023-12-20T01:26:41;6.90;99.90
43671;DHT22;29267;50.906;7.248;2023-12-20T01:29:07;6.90;99.90
43671;DHT22;29267;50.906;7.248;2023-12-20T01:31:33;6.90;99.90
43671;DHT22;29267;50.906;7.248;2023-12-20T01:33:58;6.80;99.90
43671;DHT22;29267;50.906;7.248;2023-12-20T01:36:24;6.80;99.90
43671;DHT22;29267;50.906;7.248;2023-12-20T01:38:50;6.80;99.90
43671;DHT22;29267;50.906;7.248;2023-12-20T01:41:15;6.80;99.90
43671;DHT22;29267;50.906;7.248;2023-12-20T01:43:41;6.80;99.90
43671;DHT22;29267;50.906;7.248;2023-12-20T01:46:07;6.80;99.90
43671;DHT22;29267;50.906;7.248;2023-12-20T01:48:32;6.80;99.90
43671;DHT22;29267;50.906;7.248;2023-12-20T01:50:59;6.80;99.90
43671;DHT22;29267;50.906;7.248;2023-12-20T01:53:26;6.90;99.90
43671;DHT22;29267;50.906;7.248;2023-12-20T01:55:55;6.80;99.90
43671;DHT22;29267;50.906;7.248;2023-12-20T01:58:22;6.80;99.90
43671;DHT22;29267;50.906;7.248;2023-12-20T02:00:48;6.80;99.90
43671;DHT22;29267;50.906;7.248;2023-12-20T02:03:14;6.80;99.90
43671;DHT22;29267;50.906;7.248;2023-12-20T02:05:40;6.80;99.90
43671;DHT22;29267;50.906;7.248;2023-12-20T02:08:06;6.80;99.90
43671;DHT22;29267;50.906;7.248;2023-12-20T02:10:32;6.80;99.90
43671;DHT22;29267;50.906;7.248;2023-12-20T02:12:58;6.80;99.90
43671;DHT22;29267;50.906;7.248;2023-12-20T02:15:24;6.80;99.90
43671;DHT22;29267;50.906;7.248;2023-12-20T02:17:50;6.80;99.90
43671;DHT22;29267;50.906;7.248;2023-12-20T02:20:16;6.70;99.90
43671;DHT22;29267;50.906;7.248;2023-12-20T02:22:41;6.70;99.90
43671;DHT22;29267;50.906;7.248;2023-12-20T02:25:07;6.70;99.90
43671;DHT22;29267;50.906;7.248;2023-12-20T02:27:33;6.70;99.90
43671;DHT22;29267;50.906;7.248;2023-12-20T02:29:59;6.60;99.90
43671;DHT22;29267;50.906;7.248;2023-12-20T02:32:25;6.60;99.90
43671;DHT22;29267;50.906;7.248;2023-12-20T02:34:55;6.60;99.90
43671;DHT22;29267;50.906;7.248;2023-12-20T02:37:20;6.50;99.90
43671;DHT22;29267;50.906;7.248;2023-12-20T02:39:46;6.50;99.90
43671;DHT22;29267;50.906;7.248;2023-12-20T02:42:12;6.40;99.90
43671;DHT22;29267;50.906;7.248;2023-12-20T02:44:38;6.40;99.90
43671;DHT22;29267;50.906;7.248;2023-12-20T02:47:03;6.30;99.90
43671;DHT22;29267;50.906;7.248;2023-12-20T02:49:29;6.30;99.90
43671;DHT22;29267;50.906;7.248;2023-12-20T02:51:55;6.20;99.90
43671;DHT22;29267;50.906;7.248;2023-12-20T02:54:20;6.20;99.90
43671;DHT22;29267;50.906;7.248;2023-12-20T02:56:47;6.20;99.90
43671;DHT22;29267;50.906;7.248;2023-12-20T02:59:13;6.10;99.90
43671;DHT22;29267;50.906;7.248;2023-12-20T03:01:44;6.10;99.90
43671;DHT22;29267;50.906;7.248;2023-12-20T03:04:10;6.00;99.90
43671;DHT22;29267;50.906;7.248;2023-12-20T03:06:35;5.90;99.90
43671;DHT22;29267;50.906;7.248;2023-12-20T03:09:01;5.90;99.90
43671;DHT22;29267;50.906;7.248;2023-12-20T03:11:27;5.80;99.90
43671;DHT22;29267;50.906;7.248;2023-12-20T03:13:53;5.80;99.90
43671;DHT22;29267;50.906;7.248;2023-12-20T03:16:19;5.80;99.90
43671;DHT22;29267;50.906;7.248;2023-12-20T03:18:45;5.70;99.90
43671;DHT22;29267;50.906;7.248;2023-12-20T03:21:10;5.80;99.90
43671;DHT22;29267;50.906;7.248;2023-12-20T03:23:36;5.80;99.90
43671;DHT22;29267;50.906;7.248;2023-12-20T03:26:02;5.80;99.90
43671;DHT22;29267;50.906;7.248;2023-12-20T03:28:28;5.70;99.90
43671;DHT22;29267;50.906;7.248;2023-12-20T03:30:53;5.80;99.90
43671;DHT22;29267;50.906;7.248;2023-12-20T03:33:19;5.80;99.90
43671;DHT22;29267;50.906;7.248;2023-12-20T03:35:44;5.80;99.90
43671;DHT22;29267;50.906;7.248;2023-12-20T03:38:10;5.70;99.90
43671;DHT22;29267;50.906;7.248;2023-12-20T03:40:36;5.80;99.90
43671;DHT22;29267;50.906;7.248;2023-12-20T03:43:01;5.70;99.90
43671;DHT22;29267;50.906;7.248;2023-12-20T03:45:27;5.70;99.90
43671;DHT22;29267;50.906;7.248;2023-12-20T03:47:53;5.70;99.90
43671;DHT22;29267;50.906;7.248;2023-12-20T03:50:23;5.70;99.90
43671;DHT22;29267;50.906;7.248;2023-12-20T03:52:49;5.80;99.90
43671;DHT22;29267;50.906;7.248;2023-12-20T03:55:15;5.70;99.90
43671;DHT22;29267;50.906;7.248;2023-12-20T03:57:41;5.80;99.90
43671;DHT22;29267;50.906;7.248;2023-12-20T04:00:10;5.80;99.90
43671;DHT22;29267;50.906;7.248;2023-12-20T04:02:40;5.80;99.90
43671;DHT22;29267;50.906;7.248;2023-12-20T04:05:06;5.80;99.90
43671;DHT22;29267;50.906;7.248;2023-12-20T04:07:32;5.80;99.90
43671;DHT22;29267;50.906;7.248;2023-12-20T04:09:58;5.70;99.90
43671;DHT22;29267;50.906;7.248;2023-12-20T04:12:24;5.70;99.90
43671;DHT22;29267;50.906;7.248;2023-12-20T04:14:50;5.70;99.90
43671;DHT22;29267;50.906;7.248;2023-12-20T04:17:16;5.70;99.90
43671;DHT22;29267;50.906;7.248;2023-12-20T04:19:42;5.70;99.90
43671;DHT22;29267;50.906;7.248;2023-12-20T04:22:08;5.70;99.90
43671;DHT22;29267;50.906;7.248;2023-12-20T04:24:34;5.70;99.90
43671;DHT22;29267;50.906;7.248;2023-12-20T04:26:59;5.70;99.90
43671;DHT22;29267;50.906;7.248;2023-12-20T04:29:25;5.70;99.90
43671;DHT22;29267;50.906;7.248;2023-12-20T04:31:51;5.70;99.90
43671;DHT22;29267;50.906;7.248;2023-12-20T04:34:20;5.70;99.90
43671;DHT22;29267;50.906;7.248;2023-12-20T04:36:45;5.70;99.90
43671;DHT22;29267;50.906;7.248;2023-12-20T04:39:12;5.70;99.90
43671;DHT22;29267;50.906;7.248;2023-12-20T04:41:38;5.70;99.90
43671;DHT22;29267;50.906;7.248;2023-12-20T04:44:04;5.70;99.90
43671;DHT22;29267;50.906;7.248;2023-12-20T04:46:30;5.70;99.90
43671;DHT22;29267;50.906;7.248;2023-12-20T04:48:55;5.70;99.90
43671;DHT22;29267;50.906;7.248;2023-12-20T04:51:21;5.70;99.90
43671;DHT22;29267;50.906;7.248;2023-12-20T04:53:47;5.70;99.90
43671;DHT22;29267;50.906;7.248;2023-12-20T04:56:12;5.70;99.90
43671;DHT22;29267;50.906;7.248;2023-12-20T04:58:38;5.70;99.90
43671;DHT22;29267;50.906;7.248;2023-12-20T05:01:05;5.70;99.90
43671;DHT22;29267;50.906;7.248;2023-12-20T05:03:31;5.70;99.90
43671;DHT22;29267;50.906;7.248;2023-12-20T05:05:57;5.70;99.90
43671;DHT22;29267;50.906;7.248;2023-12-20T05:08:23;5.70;99.90
43671;DHT22;29267;50.906;7.248;2023-12-20T05:10:49;5.70;99.90
43671;DHT22;29267;50.906;7.248;2023-12-20T05:13:15;5.70;99.90
43671;DHT22;29267;50.906;7.248;2023-12-20T05:15:41;5.70;99.90
43671;DHT22;29267;50.906;7.248;2023-12-20T05:18:06;5.70;99.90
43671;DHT22;29267;50.906;7.248;2023-12-20T05:20:32;5.70;99.90
43671;DHT22;29267;50.906;7.248;2023-12-20T05:22:58;5.70;99.90
43671;DHT22;29267;50.906;7.248;2023-12-20T05:25:23;5.70;99.90
43671;DHT22;29267;50.906;7.248;2023-12-20T05:27:49;5.70;99.90
43671;DHT22;29267;50.906;7.248;2023-12-20T05:30:15;5.70;99.90
43671;DHT22;29267;50.906;7.248;2023-12-20T05:32:40;5.70;99.90
43671;DHT22;29267;50.906;7.248;2023-12-20T05:35:06;5.70;99.90
43671;DHT22;29267;50.906;7.248;2023-12-20T05:37:32;5.70;99.90
43671;DHT22;29267;50.906;7.248;2023-12-20T05:39:58;5.70;99.90
43671;DHT22;29267;50.906;7.248;2023-12-20T05:42:24;5.70;99.90
43671;DHT22;29267;50.906;7.248;2023-12-20T05:44:49;5.70;99.90
43671;DHT22;29267;50.906;7.248;2023-12-20T05:47:15;5.70;99.90
43671;DHT22;29267;50.906;7.248;2023-12-20T05:49:41;5.70;99.90
43671;DHT22;29267;50.906;7.248;2023-12-20T05:52:06;5.70;99.90
43671;DHT22;29267;50.906;7.248;2023-12-20T05:54:32;5.70;99.90
43671;DHT22;29267;50.906;7.248;2023-12-20T05:56:57;5.70;99.90
43671;DHT22;29267;50.906;7.248;2023-12-20T05:59:23;5.70;99.90
43671;DHT22;29267;50.906;7.248;2023-12-20T06:01:49;5.60;99.90
43671;DHT22;29267;50.906;7.248;2023-12-20T06:04:15;5.60;99.90
43671;DHT22;29267;50.906;7.248;2023-12-20T06:06:41;5.60;99.90
43671;DHT22;29267;50.906;7.248;2023-12-20T06:09:08;5.70;99.90
43671;DHT22;29267;50.906;7.248;2023-12-20T06:11:33;5.60;99.90
43671;DHT22;29267;50.906;7.248;2023-12-20T06:13:59;5.60;99.90
43671;DHT22;29267;50.906;7.248;2023-12-20T06:16:24;5.60;99.90
43671;DHT22;29267;50.906;7.248;2023-12-20T06:18:50;5.50;99.90
43671;DHT22;29267;50.906;7.248;2023-12-20T06:21:16;5.50;99.90
43671;DHT22;29267;50.906;7.248;2023-12-20T06:23:42;5.50;99.90
43671;DHT22;29267;50.906;7.248;2023-12-20T06:26:07;5.50;99.90
43671;DHT22;29267;50.906;7.248;2023-12-20T06:28:33;5.50;99.90
43671;DHT22;29267;50.906;7.248;2023-12-20T06:30:58;5.50;99.90
43671;DHT22;29267;50.906;7.248;2023-12-20T06:33:26;5.50;99.90
43671;DHT22;29267;50.906;7.248;2023-12-20T06:35:51;5.50;99.90
43671;DHT22;29267;50.906;7.248;2023-12-20T06:38:20;5.50;99.90
43671;DHT22;29267;50.906;7.248;2023-12-20T06:40:46;5.50;99.90
43671;DHT22;29267;50.906;7.248;2023-12-20T06:43:12;5.50;99.90
43671;DHT22;29267;50.906;7.248;2023-12-20T06:45:38;5.50;99.90
43671;DHT22;29267;50.906;7.248;2023-12-20T06:48:05;5.50;99.90
43671;DHT22;29267;50.906;7.248;2023-12-20T06:50:30;5.60;99.90
43671;DHT22;29267;50.906;7.248;2023-12-20T06:52:56;5.60;99.90
43671;DHT22;29267;50.906;7.248;2023-12-20T06:55:22;5.60;99.90
43671;DHT22;29267;50.906;7.248;2023-12-20T06:57:48;5.60;99.90
43671;DHT22;29267;50.906;7.248;2023-12-20T07:00:14;5.60;99.90
43671;DHT22;29267;50.906;7.248;2023-12-20T07:02:40;5.60;99.90
43671;DHT22;29267;50.906;7.248;2023-12-20T07:05:06;5.60;99.90
43671;DHT22;29267;50.906;7.248;2023-12-20T07:07:32;5.60;99.90
43671;DHT22;29267;50.906;7.248;2023-12-20T07:09:58;5.60;99.90
43671;DHT22;29267;50.906;7.248;2023-12-20T07:12:23;5.60;99.90
43671;DHT22;29267;50.906;7.248;2023-12-20T07:14:49;5.60;99.90
43671;DHT22;29267;50.906;7.248;2023-12-20T07:17:15;5.60;99.90
43671;DHT22;29267;50.906;7.248;2023-12-20T07:19:41;5.60;99.90
43671;DHT22;29267;50.906;7.248;2023-12-20T07:22:07;5.60;99.90
43671;DHT22;29267;50.906;7.248;2023-12-20T07:24:33;5.50;99.90
43671;DHT22;29267;50.906;7.248;2023-12-20T07:27:00;5.50;99.90
43671;DHT22;29267;50.906;7.248;2023-12-20T07:29:26;5.60;99.90
43671;DHT22;29267;50.906;7.248;2023-12-20T07:31:53;5.60;99.90
43671;DHT22;29267;50.906;7.248;2023-12-20T07:34:20;5.60;99.90
43671;DHT22;29267;50.906;7.248;2023-12-20T07:36:45;5.60;99.90
43671;DHT22;29267;50.906;7.248;2023-12-20T07:39:11;5.60;99.90
43671;DHT22;29267;50.906;7.248;2023-12-20T07:41:37;5.60;99.90
43671;DHT22;29267;50.906;7.248;2023-12-20T07:44:04;5.60;99.90
43671;DHT22;29267;50.906;7.248;2023-12-20T07:46:29;5.60;99.90
43671;DHT22;29267;50.906;7.248;2023-12-20T07:48:55;5.60;99.90
43671;DHT22;29267;50.906;7.248;2023-12-20T07:51:21;5.70;99.90
43671;DHT22;29267;50.906;7.248;2023-12-20T07:53:46;5.60;99.90
43671;DHT22;29267;50.906;7.248;2023-12-20T07:56:16;5.70;99.90
43671;DHT22;29267;50.906;7.248;2023-12-20T07:58:42;5.70;99.90
43671;DHT22;29267;50.906;7.248;2023-12-20T08:01:08;5.70;99.90
43671;DHT22;29267;50.906;7.248;2023-12-20T08:03:34;5.70;99.90
43671;DHT22;29267;50.906;7.248;2023-12-20T08:05:59;5.70;99.90
43671;DHT22;29267;50.906;7.248;2023-12-20T08:08:26;5.70;99.90
43671;DHT22;29267;50.906;7.248;2023-12-20T08:10:51;5.70;99.90
43671;DHT22;29267;50.906;7.248;2023-12-20T08:13:17;5.80;99.90
43671;DHT22;29267;50.906;7.248;2023-12-20T08:15:42;5.80;99.90
43671;DHT22;29267;50.906;7.248;2023-12-20T08:18:08;5.80;99.90
43671;DHT22;29267;50.906;7.248;2023-12-20T08:20:33;5.80;99.90
43671;DHT22;29267;50.906;7.248;2023-12-20T08:22:59;5.80;99.90
43671;DHT22;29267;50.906;7.248;2023-12-20T08:25:24;5.80;99.90
43671;DHT22;29267;50.906;7.248;2023-12-20T08:27:50;5.80;99.90
43671;DHT22;29267;50.906;7.248;2023-12-20T08:30:16;5.80;99.90
43671;DHT22;29267;50.906;7.248;2023-12-20T08:32:46;5.80;99.90
43671;DHT22;29267;50.906;7.248;2023-12-20T08:35:11;5.80;99.90
43671;DHT22;29267;50.906;7.248;2023-12-20T08:37:37;5.80;99.90
43671;DHT22;29267;50.906;7.248;2023-12-20T08:40:03;5.80;99.90
43671;DHT22;29267;50.906;7.248;2023-12-20T08:42:28;5.80;99.90
43671;DHT22;29267;50.906;7.248;2023-12-20T08:44:57;5.80;99.90
43671;DHT22;29267;50.906;7.248;2023-12-20T08:47:24;5.90;99.90
43671;DHT22;29267;50.906;7.248;2023-12-20T08:49:49;5.90;99.90
43671;DHT22;29267;50.906;7.248;2023-12-20T08:52:15;5.80;99.90
43671;DHT22;29267;50.906;7.248;2023-12-20T08:54:42;5.90;99.90
43671;DHT22;29267;50.906;7.248;2023-12-20T08:57:07;5.90;99.90
43671;DHT22;29267;50.906;7.248;2023-12-20T08:59:33;5.90;99.90
43671;DHT22;29267;50.906;7.248;2023-12-20T09:01:59;5.90;99.90
43671;DHT22;29267;50.906;7.248;2023-12-20T09:04:25;5.90;99.90
43671;DHT22;29267;50.906;7.248;2023-12-20T09:06:50;5.90;99.90
43671;DHT22;29267;50.906;7.248;2023-12-20T09:09:16;5.90;99.90
43671;DHT22;29267;50.906;7.248;2023-12-20T09:11:41;5.90;99.90
43671;DHT22;29267;50.906;7.248;2023-12-20T09:14:07;5.90;99.90
43671;DHT22;29267;50.906;7.248;2023-12-20T09:16:33;5.90;99.90
43671;DHT22;29267;50.906;7.248;2023-12-20T09:18:59;5.90;99.90
43671;DHT22;29267;50.906;7.248;2023-12-20T09:21:24;5.90;99.90
43671;DHT22;29267;50.906;7.248;2023-12-20T09:23:50;5.90;99.90
43671;DHT22;29267;50.906;7.248;2023-12-20T09:26:15;6.00;99.90
43671;DHT22;29267;50.906;7.248;2023-12-20T09:28:41;6.00;99.90
43671;DHT22;29267;50.906;7.248;2023-12-20T09:31:07;6.00;99.90
43671;DHT22;29267;50.906;7.248;2023-12-20T09:33:33;6.00;99.90
43671;DHT22;29267;50.906;7.248;2023-12-20T09:35:59;5.90;99.90
43671;DHT22;29267;50.906;7.248;2023-12-20T09:38:25;6.00;99.90
43671;DHT22;29267;50.906;7.248;2023-12-20T09:40:50;6.00;99.90
43671;DHT22;29267;50.906;7.248;2023-12-20T09:43:19;5.90;99.90
43671;DHT22;29267;50.906;7.248;2023-12-20T09:45:46;6.00;99.90
43671;DHT22;29267;50.906;7.248;2023-12-20T09:48:13;5.90;99.90
43671;DHT22;29267;50.906;7.248;2023-12-20T09:50:41;5.90;99.90
43671;DHT22;29267;50.906;7.248;2023-12-20T09:53:14;5.90;99.90
43671;DHT22;29267;50.906;7.248;2023-12-20T09:55:41;6.00;99.90
43671;DHT22;29267;50.906;7.248;2023-12-20T09:58:07;6.00;99.90
43671;DHT22;29267;50.906;7.248;2023-12-20T10:00:34;6.00;99.90
43671;DHT22;29267;50.906;7.248;2023-12-20T10:03:00;6.10;99.90
43671;DHT22;29267;50.906;7.248;2023-12-20T10:05:31;6.00;99.90
43671;DHT22;29267;50.906;7.248;2023-12-20T10:07:57;6.10;99.90
43671;DHT22;29267;50.906;7.248;2023-12-20T10:10:23;6.10;99.90
43671;DHT22;29267;50.906;7.248;2023-12-20T10:13:06;6.20;99.90
43671;DHT22;29267;50.906;7.248;2023-12-20T10:15:36;6.10;99.90
43671;DHT22;29267;50.906;7.248;2023-12-20T10:18:02;6.20;99.90
43671;DHT22;29267;50.906;7.248;2023-12-20T10:20:29;6.20;99.90
43671;DHT22;29267;50.906;7.248;2023-12-20T10:22:56;6.20;99.90
43671;DHT22;29267;50.906;7.248;2023-12-20T10:25:22;6.20;99.90
43671;DHT22;29267;50.906;7.248;2023-12-20T10:27:49;6.20;99.90
43671;DHT22;29267;50.906;7.248;2023-12-20T10:30:14;6.20;99.90
43671;DHT22;29267;50.906;7.248;2023-12-20T10:32:40;6.10;99.90
43671;DHT22;29267;50.906;7.248;2023-12-20T10:35:09;6.10;99.90
43671;DHT22;29267;50.906;7.248;2023-12-20T10:37:36;6.20;99.90
43671;DHT22;29267;50.906;7.248;2023-12-20T10:40:04;6.10;99.90
43671;DHT22;29267;50.906;7.248;2023-12-20T10:42:31;6.10;99.90
43671;DHT22;29267;50.906;7.248;2023-12-20T10:44:59;6.20;99.90
43671;DHT22;29267;50.906;7.248;2023-12-20T10:47:25;6.10;99.90
43671;DHT22;29267;50.906;7.248;2023-12-20T10:49:52;6.20;99.90
43671;DHT22;29267;50.906;7.248;2023-12-20T10:52:19;6.20;99.90
43671;DHT22;29267;50.906;7.248;2023-12-20T10:54:48;6.20;99.90
43671;DHT22;29267;50.906;7.248;2023-12-20T10:57:13;6.30;99.90
43671;DHT22;29267;50.906;7.248;2023-12-20T10:59:43;6.20;99.90
43671;DHT22;29267;50.906;7.248;2023-12-20T11:02:11;6.20;99.90
43671;DHT22;29267;50.906;7.248;2023-12-20T11:04:39;6.30;99.90
43671;DHT22;29267;50.906;7.248;2023-12-20T11:07:22;6.30;99.90
43671;DHT22;29267;50.906;7.248;2023-12-20T11:12:51;6.30;99.90
43671;DHT22;29267;50.906;7.248;2023-12-20T11:15:19;6.30;99.90
43671;DHT22;29267;50.906;7.248;2023-12-20T11:17:45;6.30;99.90
43671;DHT22;29267;50.906;7.248;2023-12-20T11:20:14;6.40;99.90
43671;DHT22;29267;50.906;7.248;2023-12-20T11:22:52;6.40;99.90
43671;DHT22;29267;50.906;7.248;2023-12-20T11:25:18;6.40;99.90
43671;DHT22;29267;50.906;7.248;2023-12-20T11:27:43;6.40;99.90
43671;DHT22;29267;50.906;7.248;2023-12-20T11:30:10;6.40;99.90
43671;DHT22;29267;50.906;7.248;2023-12-20T11:32:37;6.40;99.90
43671;DHT22;29267;50.906;7.248;2023-12-20T11:37:38;6.40;99.90
43671;DHT22;29267;50.906;7.248;2023-12-20T11:40:13;6.40;99.90
43671;DHT22;29267;50.906;7.248;2023-12-20T11:42:40;6.50;99.90
43671;DHT22;29267;50.906;7.248;2023-12-20T11:45:10;6.40;99.90
43671;DHT22;29267;50.906;7.248;2023-12-20T11:47:36;6.50;99.90
43671;DHT22;29267;50.906;7.248;2023-12-20T11:50:02;6.40;99.90
43671;DHT22;29267;50.906;7.248;2023-12-20T11:52:29;6.50;99.90
43671;DHT22;29267;50.906;7.248;2023-12-20T11:54:56;6.50;99.90
43671;DHT22;29267;50.906;7.248;2023-12-20T11:57:22;6.50;99.90
43671;DHT22;29267;50.906;7.248;2023-12-20T11:59:47;6.50;99.90
43671;DHT22;29267;50.906;7.248;2023-12-20T12:02:13;6.50;99.90
43671;DHT22;29267;50.906;7.248;2023-12-20T12:04:41;6.50;99.90
43671;DHT22;29267;50.906;7.248;2023-12-20T12:07:07;6.50;99.90
43671;DHT22;29267;50.906;7.248;2023-12-20T12:09:33;6.50;99.90
43671;DHT22;29267;50.906;7.248;2023-12-20T12:11:59;6.50;99.90
43671;DHT22;29267;50.906;7.248;2023-12-20T12:14:24;6.50;99.90
43671;DHT22;29267;50.906;7.248;2023-12-20T12:16:50;6.50;99.90
43671;DHT22;29267;50.906;7.248;2023-12-20T12:19:25;6.50;99.90
43671;DHT22;29267;50.906;7.248;2023-12-20T12:22:04;6.50;99.90
43671;DHT22;29267;50.906;7.248;2023-12-20T12:24:32;6.60;99.90
43671;DHT22;29267;50.906;7.248;2023-12-20T12:26:58;6.60;99.90
43671;DHT22;29267;50.906;7.248;2023-12-20T12:29:24;6.60;99.90
43671;DHT22;29267;50.906;7.248;2023-12-20T12:31:52;6.60;99.90
43671;DHT22;29267;50.906;7.248;2023-12-20T12:34:18;6.60;99.90
43671;DHT22;29267;50.906;7.248;2023-12-20T12:36:44;6.60;99.90
43671;DHT22;29267;50.906;7.248;2023-12-20T12:39:12;6.60;99.90
43671;DHT22;29267;50.906;7.248;2023-12-20T12:41:40;6.60;99.90
43671;DHT22;29267;50.906;7.248;2023-12-20T12:44:06;6.50;99.90
43671;DHT22;29267;50.906;7.248;2023-12-20T12:46:32;6.50;99.90
43671;DHT22;29267;50.906;7.248;2023-12-20T12:48:58;6.40;99.90
43671;DHT22;29267;50.906;7.248;2023-12-20T12:51:23;6.40;99.90
43671;DHT22;29267;50.906;7.248;2023-12-20T12:53:49;6.40;99.90
43671;DHT22;29267;50.906;7.248;2023-12-20T12:56:15;6.40;99.90
43671;DHT22;29267;50.906;7.248;2023-12-20T12:58:41;6.40;99.90
43671;DHT22;29267;50.906;7.248;2023-12-20T13:01:07;6.40;99.90
43671;DHT22;29267;50.906;7.248;2023-12-20T13:03:33;6.40;99.90
43671;DHT22;29267;50.906;7.248;2023-12-20T13:05:59;6.40;99.90
43671;DHT22;29267;50.906;7.248;2023-12-20T13:08:25;6.40;99.90
43671;DHT22;29267;50.906;7.248;2023-12-20T13:10:51;6.40;99.90
43671;DHT22;29267;50.906;7.248;2023-12-20T13:13:16;6.40;99.90
43671;DHT22;29267;50.906;7.248;2023-12-20T13:15:42;6.40;99.90
43671;DHT22;29267;50.906;7.248;2023-12-20T13:18:13;6.30;99.90
43671;DHT22;29267;50.906;7.248;2023-12-20T13:20:39;6.40;99.90
43671;DHT22;29267;50.906;7.248;2023-12-20T13:23:05;6.30;99.90
43671;DHT22;29267;50.906;7.248;2023-12-20T13:25:31;6.30;99.90
43671;DHT22;29267;50.906;7.248;2023-12-20T13:27:56;6.30;99.90
43671;DHT22;29267;50.906;7.248;2023-12-20T13:30:22;6.30;99.90
43671;DHT22;29267;50.906;7.248;2023-12-20T13:32:48;6.30;99.90
43671;DHT22;29267;50.906;7.248;2023-12-20T13:35:14;6.30;99.90
43671;DHT22;29267;50.906;7.248;2023-12-20T13:37:40;6.30;99.90
43671;DHT22;29267;50.906;7.248;2023-12-20T13:40:06;6.40;99.90
43671;DHT22;29267;50.906;7.248;2023-12-20T13:42:32;6.40;99.90
43671;DHT22;29267;50.906;7.248;2023-12-20T13:44:57;6.40;99.90
43671;DHT22;29267;50.906;7.248;2023-12-20T13:47:23;6.40;99.90
43671;DHT22;29267;50.906;7.248;2023-12-20T13:49:48;6.40;99.90
43671;DHT22;29267;50.906;7.248;2023-12-20T13:52:14;6.40;99.90
43671;DHT22;29267;50.906;7.248;2023-12-20T13:54:39;6.40;99.90
43671;DHT22;29267;50.906;7.248;2023-12-20T13:57:05;6.50;99.90
43671;DHT22;29267;50.906;7.248;2023-12-20T13:59:31;6.40;99.90
43671;DHT22;29267;50.906;7.248;2023-12-20T14:01:56;6.40;99.90
43671;DHT22;29267;50.906;7.248;2023-12-20T14:04:22;6.40;99.90
43671;DHT22;29267;50.906;7.248;2023-12-20T14:06:48;6.40;99.90
43671;DHT22;29267;50.906;7.248;2023-12-20T14:09:13;6.50;99.90
43671;DHT22;29267;50.906;7.248;2023-12-20T14:11:40;6.50;99.90
43671;DHT22;29267;50.906;7.248;2023-12-20T14:14:07;6.40;99.90
43671;DHT22;29267;50.906;7.248;2023-12-20T14:16:34;6.40;99.90
43671;DHT22;29267;50.906;7.248;2023-12-20T14:19:00;6.40;99.90
43671;DHT22;29267;50.906;7.248;2023-12-20T14:21:28;6.40;99.90
43671;DHT22;29267;50.906;7.248;2023-12-20T14:23:53;6.40;99.90
43671;DHT22;29267;50.906;7.248;2023-12-20T14:26:19;6.40;99.90
43671;DHT22;29267;50.906;7.248;2023-12-20T14:28:45;6.40;99.90
43671;DHT22;29267;50.906;7.248;2023-12-20T14:31:10;6.40;99.90
43671;DHT22;29267;50.906;7.248;2023-12-20T14:33:36;6.50;99.90
43671;DHT22;29267;50.906;7.248;2023-12-20T14:36:04;6.50;99.90
43671;DHT22;29267;50.906;7.248;2023-12-20T14:38:33;6.50;99.90
43671;DHT22;29267;50.906;7.248;2023-12-20T14:40:59;6.40;99.90
43671;DHT22;29267;50.906;7.248;2023-12-20T14:43:26;6.50;99.90
43671;DHT22;29267;50.906;7.248;2023-12-20T14:45:52;6.50;99.90
43671;DHT22;29267;50.906;7.248;2023-12-20T14:48:17;6.50;99.90
43671;DHT22;29267;50.906;7.248;2023-12-20T14:50:44;6.50;99.90
43671;DHT22;29267;50.906;7.248;2023-12-20T14:53:09;6.50;99.90
43671;DHT22;29267;50.906;7.248;2023-12-20T14:55:35;6.50;99.90
43671;DHT22;29267;50.906;7.248;2023-12-20T14:58:01;6.50;99.90
43671;DHT22;29267;50.906;7.248;2023-12-20T15:00:27;6.50;99.90
43671;DHT22;29267;50.906;7.248;2023-12-20T15:02:53;6.50;99.90
43671;DHT22;29267;50.906;7.248;2023-12-20T15:05:22;6.50;99.90
43671;DHT22;29267;50.906;7.248;2023-12-20T15:07:47;6.60;99.90
43671;DHT22;29267;50.906;7.248;2023-12-20T15:10:13;6.60;99.90
43671;DHT22;29267;50.906;7.248;2023-12-20T15:12:39;6.60;99.90
43671;DHT22;29267;50.906;7.248;2023-12-20T15:15:05;6.60;99.90
43671;DHT22;29267;50.906;7.248;2023-12-20T15:17:31;6.60;99.90
43671;DHT22;29267;50.906;7.248;2023-12-20T15:19:57;6.60;99.90
43671;DHT22;29267;50.906;7.248;2023-12-20T15:22:22;6.60;99.90
43671;DHT22;29267;50.906;7.248;2023-12-20T15:24:49;6.70;99.90
43671;DHT22;29267;50.906;7.248;2023-12-20T15:27:16;6.70;99.90
43671;DHT22;29267;50.906;7.248;2023-12-20T15:29:43;6.70;99.90
43671;DHT22;29267;50.906;7.248;2023-12-20T15:32:09;6.70;99.90
43671;DHT22;29267;50.906;7.248;2023-12-20T15:34:34;6.70;99.90
43671;DHT22;29267;50.906;7.248;2023-12-20T15:37:00;6.70;99.90
43671;DHT22;29267;50.906;7.248;2023-12-20T15:39:25;6.70;99.90
43671;DHT22;29267;50.906;7.248;2023-12-20T15:41:51;6.70;99.90
43671;DHT22;29267;50.906;7.248;2023-12-20T15:44:17;6.70;99.90